• Join FlightAware (Why Join?)
  • Login
  • US Flag 
05:03AM EDT


 

Airport Tracker/Info


-or-


 

Live Flight TrackerFlight Track Log ✈ FLG3906 ✈ 04-May-2012 ✈ KTUP - KMEM

Flight Track Log - Related Links

Times and Time Zones

All times are in EDT time to prevent confusion due to time zone crossing. See the FLG3906 flight status page for this flight to view local times or setup timezone preferences in your user account.

Time Position Orientation Groundspeed Altitude Reporting Facility
EDT Latitude Longitude Course Direction KTS MPH feet Rate Location/Type
06:36PM 34.2817 -88.7917 271° West  Level FlightAware Approximate
06:38PM 34.2828 -88.8664 351° North 294 338 5,700  Level Memphis Center
06:39PM 34.3581 -88.8803 348° North 289 333 6,900 600 Climbing Memphis Center
06:40PM 34.4333 -88.8992 350° North 289 333 6,900 900 Level Memphis Center
06:41PM 34.5086 -88.9156 349° North 276 318 8,800 1,500 Climbing Memphis Center
06:42PM 34.5861 -88.9344 324° Northwest 276 318 9,900 540 Climbing Memphis Center
06:43PM 34.6450 -88.9864 287° West 269 310 9,900  Level Memphis Center
06:44PM 34.6647 -89.0669 286° West 256 295 9,900  Level Memphis Center
06:45PM 34.6886 -89.1675 286° West 271 312 9,900  Level Memphis Center
06:46PM 34.7103 -89.2581 286° West 279 321 10,000  Climbing Memphis Center
06:47PM 34.7297 -89.3389 288° West 279 321 10,000 -540 Level Memphis Center
06:48PM 34.7536 -89.4294 291° West 279 321 9,000 -540 Descending Memphis Center
06:49PM 34.7811 -89.5178 302° West 279 321 9,000  Level Memphis Center
06:50PM 34.8214 -89.5956 302° West 279 321 9,000  Level Memphis Center
06:51PM 34.8614 -89.6739 303° West 279 321 9,000 -180 Level Memphis Center
06:52PM 34.9036 -89.7544 301° West 279 321 8,700 -540 Descending Memphis Center
06:53PM 34.9478 -89.8428 328° Northwest 279 321 8,000 -720 Descending Memphis Center
06:54PM 35.0003 -89.8831 North 252 290 7,300 -1,200 Descending Memphis Center
06:55PM 35.0772 -89.8800 North 245 282 5,700 -1,500 Descending Memphis Center
06:56PM 35.1419 -89.8719 358° North 238 274 4,400 -1,200 Descending Memphis Center
06:57PM 35.2044 -89.8742 243° Southwest 226 260 3,300 -840 Descending Memphis Center
06:59PM 35.1667 -89.9667 180° South 179 206 2,000 -600 Descending Anchorage Center
07:00PM 35.1167 -89.9667 180° South 157 181 1,700 -540 Descending Anchorage Center
07:01PM 35.0833 -89.9667 180° South 141 162 1,000 -780 Descending Anchorage Center